sim
Sign-in with your pilot id or email,
or register
Callsign
Passwort

Schedule Details

Flight Number: RYR8968 (4)
Departure: Athens Eleftherios Venizelos (LGAV) at 18:40
Arrival: Thessaloniki International Airport (LGTS) at 19:40
Route: Ryanair Passenger Schedule. Enter filed route here before submitting Pirep.

Weather Information
Getting current METAR information for LGAV 230620Z 01022G33KT CAVOK 29/12 Q1016 NOSIG
Getting current METAR information for LGTS 230620Z VRB02KT CAVOK 28/18 Q1019 NOSIG

Schedule Frequency

Route Map